Freshwater, Canada
Current Conditions -  °F | °C
As of 9:00 AM on Monday 26 Jan 2015 (Local Time) from CYYT Reporting Station
Scattered Clouds Scattered Clouds  
Wind Chill: 10°   Ceiling: Unl
Heat Index: 27°   Visibility: 15mi
Dew Point: 18°   Wind: 31mph
Humidity: 69%   Direction: 250°WSW
Pressure: 29.65"   Gusts: 41mph
Location:  47.75°N, 53.2°W
Report Text: CYYT 261200Z 25027G36KT 15SM FEW022 SCT050 M03/M08 A2965 RMK SC2SC1 SLP046
Loading
Personal Weather Stations






























Interactive Weather Map New forecast layout! Learn more

10-Day Weather Forecast

Advertisements
Track Severe Weather on mobile